Time;durP1;ratioP1;P1;durP2;ratioP2;P2;SDS_P1;SDS_P2;PMS_P1;PMS_P2;Temp;Humidity;BMP_temperature;BMP_pressure;BME280_temperature;BME280_humidity;BME280_pressure;Samples;Min_cycle;Max_cycle;Signal;HPM_P1;HPM_P2
2023/07/07 00:01:01;;;;;;;;;;;;;;;28.62;44.14;100515.54;103366;1284;62368;-81
2023/07/07 00:03:33;;;;;;;;;;;;;;;28.63;44.28;100517.85;103139;1284;59974;-81
2023/07/07 00:05:59;;;;;;;;;;;;;;;28.63;44.27;100520.40;103017;1284;61362;-81
2023/07/07 00:08:24;;;;;;;;;;;;;;;28.63;44.35;100522.20;103121;1284;60027;-81
2023/07/07 00:10:50;;;;;;;;;;;;;;;28.63;44.29;100522.23;102991;1285;62074;-81
2023/07/07 00:13:16;;;;;;;;;;;;;;;28.62;44.26;100517.95;103165;1284;61257;-82
2023/07/07 00:15:44;;;;;;;;;;;;;;;28.62;44.18;100513.61;103033;1285;61540;-82
2023/07/07 00:18:17;;;;;;;;;;;;;;;28.62;44.27;100518.84;103080;1289;61298;-82
2023/07/07 00:20:43;;;;;;;;;;;;;;;28.62;44.06;100520.84;103242;1286;64865;-82
2023/07/07 00:23:08;;;;;;;;;;;;;;;28.62;43.98;100522.14;102929;1285;62246;-82
2023/07/07 00:25:34;;;;;;;;;;;;;;;28.62;44.36;100522.30;102865;1284;61448;-82
2023/07/07 00:27:59;;;;;;;;;;;;;;;28.62;44.13;100525.02;103123;1284;61457;-82
2023/07/07 00:30:24;;;;;;;;;;;;;;;28.62;44.26;100525.94;103102;1284;61250;-82
2023/07/07 00:32:50;;;;;;;;;;;;;;;28.62;44.31;100525.56;103106;1284;61456;-82
2023/07/07 00:35:15;;;;;;;;;;;;;;;28.62;44.30;100527.06;103205;1284;61355;-82
2023/07/07 00:37:42;;;;;;;;;;;;;;;28.61;44.39;100520.94;103210;1284;61389;-82
2023/07/07 00:40:08;;;;;;;;;;;;;;;28.61;44.44;100523.63;102983;1284;62144;-82
2023/07/07 00:42:33;;;;;;;;;;;;;;;28.61;44.14;100524.00;102959;1284;62301;-82
2023/07/07 00:45:06;;;;;;;;;;;;;;;28.61;44.32;100526.54;103085;1288;61530;-82
2023/07/07 00:47:32;;;;;;;;;;;;;;;28.60;44.31;100524.60;103022;1284;65642;-82
2023/07/07 00:49:57;;;;;;;;;;;;;;;28.60;44.43;100525.33;103149;1284;59990;-82
2023/07/07 00:52:23;;;;;;;;;;;;;;;28.60;44.38;100520.27;102825;1284;61553;-82
2023/07/07 00:54:48;;;;;;;;;;;;;;;28.60;44.31;100522.05;103160;1285;61370;-82
2023/07/07 00:57:14;;;;;;;;;;;;;;;28.60;44.15;100520.80;103219;1284;61538;-82
2023/07/07 00:59:40;;;;;;;;;;;;;;;28.60;44.33;100521.17;102961;1284;65897;-81
2023/07/07 01:02:06;;;;;;;;;;;;;;;28.60;44.37;100522.09;103189;1284;61402;-81
2023/07/07 01:04:32;;;;;;;;;;;;;;;28.60;44.33;100519.95;103187;1284;61868;-81
2023/07/07 01:06:58;;;;;;;;;;;;;;;28.59;44.28;100520.73;102859;1287;61458;-81
2023/07/07 01:09:24;;;;;;;;;;;;;;;28.59;44.37;100522.16;103032;1284;62167;-81
2023/07/07 01:11:49;;;;;;;;;;;;;;;28.60;44.47;100524.50;103144;1284;61403;-81
2023/07/07 01:14:18;;;;;;;;;;;;;;;28.60;44.37;100523.23;103101;1285;60088;-81
2023/07/07 01:16:51;;;;;;;;;;;;;;;28.59;44.49;100524.16;103105;1284;61296;-81
2023/07/07 01:19:56;;;;;;;;;;;;;;;28.59;44.52;100523.83;103082;1284;66998;-81
2023/07/07 01:22:39;;;;;;;;;;;;;;;28.59;44.48;100523.25;102729;1290;59987;-81
2023/07/07 01:25:12;;;;;;;;;;;;;;;28.59;44.54;100522.39;102627;1289;61391;-81
2023/07/07 01:27:56;;;;;;;;;;;;;;;28.59;44.47;100525.14;102705;1285;63790;-81
2023/07/07 01:30:29;;;;;;;;;;;;;;;28.58;44.39;100524.80;103061;1284;65677;-81
2023/07/07 01:32:54;;;;;;;;;;;;;;;28.59;44.50;100523.67;103215;1284;62209;-81
2023/07/07 01:35:20;;;;;;;;;;;;;;;28.59;44.54;100525.52;103106;1284;61417;-81
2023/07/07 01:37:54;;;;;;;;;;;;;;;28.58;44.40;100520.65;102923;1284;62062;-81
2023/07/07 01:40:20;;;;;;;;;;;;;;;28.58;44.43;100523.74;103169;1284;65516;-81
2023/07/07 01:42:46;;;;;;;;;;;;;;;28.58;44.27;100528.09;103235;1284;61376;-82
2023/07/07 01:45:16;;;;;;;;;;;;;;;28.58;44.30;100531.35;103035;1284;59900;-82
2023/07/07 01:47:43;;;;;;;;;;;;;;;28.58;44.30;100532.60;103127;1284;64569;-82
2023/07/07 01:50:11;;;;;;;;;;;;;;;28.58;44.44;100536.81;103049;1284;65909;-82
2023/07/07 01:52:38;;;;;;;;;;;;;;;28.58;44.26;100539.20;103157;1284;60159;-82
2023/07/07 01:55:11;;;;;;;;;;;;;;;28.58;44.55;100540.65;103180;1284;62270;-82
2023/07/07 01:57:37;;;;;;;;;;;;;;;28.58;44.53;100543.52;103213;1284;64793;-82
2023/07/07 02:00:02;;;;;;;;;;;;;;;28.57;44.70;100544.84;103161;1284;61472;-82
2023/07/07 02:02:28;;;;;;;;;;;;;;;28.57;44.64;100545.95;103212;1285;61302;-81
2023/07/07 02:04:53;;;;;;;;;;;;;;;28.57;44.66;100546.33;103097;1284;61472;-81
2023/07/07 02:07:19;;;;;;;;;;;;;;;28.57;44.67;100543.78;103122;1286;62352;-81
2023/07/07 02:09:44;;;;;;;;;;;;;;;28.57;44.68;100539.60;103029;1284;64901;-81
2023/07/07 02:12:10;;;;;;;;;;;;;;;28.57;44.42;100536.54;103043;1284;61248;-81
2023/07/07 02:14:35;;;;;;;;;;;;;;;28.56;44.70;100539.33;103032;1284;61375;-81
2023/07/07 02:17:01;;;;;;;;;;;;;;;28.57;44.56;100544.56;103056;1285;61447;-81
2023/07/07 02:19:27;;;;;;;;;;;;;;;28.57;44.60;100545.80;103070;1284;61375;-81
2023/07/07 02:21:52;;;;;;;;;;;;;;;28.57;44.66;100547.98;103204;1284;64708;-81
2023/07/07 02:24:18;;;;;;;;;;;;;;;28.56;44.54;100550.73;103088;1285;61946;-81
2023/07/07 02:26:43;;;;;;;;;;;;;;;28.57;44.58;100549.98;103264;1284;61396;-81
2023/07/07 02:29:09;;;;;;;;;;;;;;;28.56;44.70;100550.94;103151;1284;60159;-81
2023/07/07 02:31:34;;;;;;;;;;;;;;;28.56;44.56;100550.59;103146;1284;62184;-81
2023/07/07 02:34:00;;;;;;;;;;;;;;;28.56;44.54;100551.10;103153;1284;63816;-81
2023/07/07 02:36:25;;;;;;;;;;;;;;;28.56;44.67;100549.52;103043;1284;61390;-81
2023/07/07 02:38:53;;;;;;;;;;;;;;;28.56;44.54;100549.34;102976;1284;61409;-81
2023/07/07 02:41:19;;;;;;;;;;;;;;;28.56;44.74;100550.73;102994;1284;62266;-81
2023/07/07 02:43:44;;;;;;;;;;;;;;;28.56;44.72;100545.33;103020;1285;62271;-81
2023/07/07 02:46:10;;;;;;;;;;;;;;;28.56;44.65;100546.27;103091;1284;61411;-81
2023/07/07 02:48:36;;;;;;;;;;;;;;;28.56;44.69;100550.22;103154;1284;61379;-81
2023/07/07 02:51:02;;;;;;;;;;;;;;;28.56;44.62;100549.73;102957;1284;62137;-81
2023/07/07 02:53:29;;;;;;;;;;;;;;;28.56;44.64;100550.28;102930;1285;59997;-81
2023/07/07 02:55:54;;;;;;;;;;;;;;;28.56;44.60;100550.45;102967;1289;62145;-81
2023/07/07 02:58:20;;;;;;;;;;;;;;;28.56;44.66;100548.65;102987;1284;61391;-81
2023/07/07 03:00:46;;;;;;;;;;;;;;;28.56;44.83;100550.80;103181;1284;61319;-81
2023/07/07 03:03:11;;;;;;;;;;;;;;;28.56;44.87;100550.96;102981;1284;62370;-81
2023/07/07 03:05:36;;;;;;;;;;;;;;;28.56;44.61;100555.33;103000;1289;60132;-81
2023/07/07 03:08:02;;;;;;;;;;;;;;;28.56;44.64;100558.23;102998;1284;72469;-81
2023/07/07 03:10:30;;;;;;;;;;;;;;;28.56;44.53;100557.86;103130;1284;61420;-81
2023/07/07 03:12:56;;;;;;;;;;;;;;;28.56;44.79;100558.02;103058;1284;61345;-81
2023/07/07 03:15:22;;;;;;;;;;;;;;;28.56;44.69;100561.63;102986;1284;60162;-81
2023/07/07 03:17:47;;;;;;;;;;;;;;;28.56;44.80;100563.99;103085;1287;62295;-81
2023/07/07 03:20:13;;;;;;;;;;;;;;;28.56;44.72;100565.46;103027;1284;61386;-81
2023/07/07 03:22:38;;;;;;;;;;;;;;;28.56;44.80;100564.71;103116;1284;62365;-81
2023/07/07 03:25:04;;;;;;;;;;;;;;;28.55;44.74;100563.70;102969;1287;62279;-81
2023/07/07 03:27:29;;;;;;;;;;;;;;;28.56;44.89;100562.91;103126;1284;61395;-81
2023/07/07 03:29:55;;;;;;;;;;;;;;;28.56;44.84;100559.83;102859;1284;61319;-81
2023/07/07 03:32:20;;;;;;;;;;;;;;;28.56;44.65;100560.88;103196;1284;61374;-81
2023/07/07 03:34:49;;;;;;;;;;;;;;;28.56;44.83;100559.80;103165;1284;60096;-81
2023/07/07 03:37:15;;;;;;;;;;;;;;;28.57;44.85;100561.38;103091;1284;61208;-81
2023/07/07 03:39:41;;;;;;;;;;;;;;;28.57;44.73;100564.82;103008;1285;61484;-81
2023/07/07 03:42:08;;;;;;;;;;;;;;;28.57;44.77;100568.80;103196;1284;61296;-81
2023/07/07 03:44:37;;;;;;;;;;;;;;;28.57;44.82;100575.17;103121;1284;62332;-81
2023/07/07 03:47:03;;;;;;;;;;;;;;;28.57;44.83;100578.02;103053;1285;61295;-81
2023/07/07 03:49:28;;;;;;;;;;;;;;;28.57;44.69;100581.63;103096;1284;61366;-81
2023/07/07 03:51:54;;;;;;;;;;;;;;;28.57;44.79;100580.56;103006;1284;61587;-81
2023/07/07 03:54:19;;;;;;;;;;;;;;;28.57;44.73;100580.77;103067;1284;61415;-81
2023/07/07 03:56:45;;;;;;;;;;;;;;;28.57;44.75;100582.23;102972;1285;60111;-81
2023/07/07 03:59:11;;;;;;;;;;;;;;;28.56;44.83;100576.31;103037;1284;61486;-81
2023/07/07 04:01:36;;;;;;;;;;;;;;;28.56;44.72;100583.21;103138;1287;61396;-81
2023/07/07 04:04:02;;;;;;;;;;;;;;;28.56;44.96;100584.30;103028;1284;62253;-81
2023/07/07 04:06:27;;;;;;;;;;;;;;;28.56;44.75;100585.21;103028;1289;61402;-81
2023/07/07 04:08:53;;;;;;;;;;;;;;;28.56;44.89;100585.59;103122;1284;61289;-81
2023/07/07 04:11:19;;;;;;;;;;;;;;;28.55;44.92;100588.73;103204;1283;62047;-81
2023/07/07 04:13:46;;;;;;;;;;;;;;;28.55;44.75;100594.17;102978;1284;62196;-81
2023/07/07 04:16:13;;;;;;;;;;;;;;;28.55;44.64;100592.17;102953;1285;60058;-81
2023/07/07 04:18:38;;;;;;;;;;;;;;;28.55;44.72;100588.20;103197;1284;59925;-81
2023/07/07 04:21:06;;;;;;;;;;;;;;;28.54;44.64;100590.98;102885;1284;62192;-81
2023/07/07 04:23:32;;;;;;;;;;;;;;;28.54;44.59;100589.15;103026;1284;61431;-81
2023/07/07 04:25:57;;;;;;;;;;;;;;;28.55;44.71;100584.43;103110;1285;60013;-81
2023/07/07 04:28:23;;;;;;;;;;;;;;;28.54;44.57;100585.03;103106;1286;61316;-81
2023/07/07 04:30:55;;;;;;;;;;;;;;;28.54;44.41;100583.75;102971;1284;61400;-81
2023/07/07 04:33:22;;;;;;;;;;;;;;;28.54;44.66;100585.17;103180;1283;62211;-81
2023/07/07 04:35:54;;;;;;;;;;;;;;;28.54;44.71;100586.80;103179;1284;63737;-81
2023/07/07 04:38:21;;;;;;;;;;;;;;;28.54;44.55;100593.15;103320;1284;65924;-81
2023/07/07 04:40:46;;;;;;;;;;;;;;;28.55;44.32;100590.95;103056;1285;61137;-81
2023/07/07 04:43:12;;;;;;;;;;;;;;;28.55;44.45;100592.34;103255;1284;62301;-81
2023/07/07 04:45:37;;;;;;;;;;;;;;;28.55;44.31;100590.89;103152;1285;61411;-81
2023/07/07 04:48:03;;;;;;;;;;;;;;;28.55;44.53;100590.34;103329;1289;61345;-81
2023/07/07 04:50:28;;;;;;;;;;;;;;;28.56;44.37;100592.07;103159;1284;61396;-81
2023/07/07 04:52:54;;;;;;;;;;;;;;;28.57;44.29;100591.63;103113;1287;60039;-81
2023/07/07 04:55:19;;;;;;;;;;;;;;;28.57;44.44;100601.15;103162;1284;61371;-81
2023/07/07 04:57:45;;;;;;;;;;;;;;;28.57;44.20;100596.42;103017;1286;61389;-81
2023/07/07 05:00:10;;;;;;;;;;;;;;;28.58;44.24;100598.73;103044;1286;61388;-81
2023/07/07 05:02:36;;;;;;;;;;;;;;;28.58;44.36;100596.59;103029;1286;61577;-81
2023/07/07 05:05:02;;;;;;;;;;;;;;;28.57;44.19;100603.86;103030;1286;60127;-81
2023/07/07 05:07:28;;;;;;;;;;;;;;;28.57;44.37;100606.23;102926;1287;62160;-81
2023/07/07 05:09:55;;;;;;;;;;;;;;;28.57;44.06;100605.21;103175;1286;61548;-81
2023/07/07 05:12:21;;;;;;;;;;;;;;;28.56;44.11;100602.16;103094;1288;61367;-81
2023/07/07 05:14:46;;;;;;;;;;;;;;;28.57;44.20;100603.73;102903;1287;60049;-81
2023/07/07 05:17:12;;;;;;;;;;;;;;;28.56;44.12;100601.10;103410;1286;61456;-81
2023/07/07 05:19:37;;;;;;;;;;;;;;;28.56;44.17;100603.85;103906;1286;60015;-81
2023/07/07 05:22:03;;;;;;;;;;;;;;;28.55;44.10;100606.05;103362;1287;62390;-81
2023/07/07 05:24:28;;;;;;;;;;;;;;;28.55;44.07;100608.80;103955;1287;61427;-81
2023/07/07 05:26:54;;;;;;;;;;;;;;;28.55;44.12;100607.55;103680;1288;62362;-81
2023/07/07 05:29:20;;;;;;;;;;;;;;;28.55;44.05;100608.11;103875;1283;59921;-81
2023/07/07 05:31:45;;;;;;;;;;;;;;;28.54;44.09;100612.50;103572;1284;60310;-81
2023/07/07 05:34:10;;;;;;;;;;;;;;;28.54;44.07;100614.13;103050;1284;61398;-81
2023/07/07 05:36:36;;;;;;;;;;;;;;;28.55;43.84;100616.44;103283;1284;67090;-81
2023/07/07 05:39:04;;;;;;;;;;;;;;;28.55;43.84;100619.45;103366;1284;60109;-81
2023/07/07 05:41:29;;;;;;;;;;;;;;;28.56;43.92;100623.23;103310;1284;61386;-81
2023/07/07 05:43:55;;;;;;;;;;;;;;;28.56;43.91;100626.83;103326;1284;61412;-81
2023/07/07 05:46:21;;;;;;;;;;;;;;;28.56;43.94;100629.57;103387;1284;61263;-81
2023/07/07 05:48:47;;;;;;;;;;;;;;;28.56;43.93;100626.65;103159;1287;61470;-81
2023/07/07 05:51:13;;;;;;;;;;;;;;;28.56;43.78;100627.54;103585;1284;61253;-81
2023/07/07 05:53:40;;;;;;;;;;;;;;;28.57;44.05;100629.59;103314;1285;61378;-81
2023/07/07 05:56:13;;;;;;;;;;;;;;;28.57;43.73;100628.17;103505;1285;61453;-81
2023/07/07 05:58:38;;;;;;;;;;;;;;;28.57;43.65;100626.91;104194;1285;61280;-81
2023/07/07 06:01:04;;;;;;;;;;;;;;;28.57;43.76;100623.10;103770;1284;61277;-81
2023/07/07 06:03:30;;;;;;;;;;;;;;;28.57;43.79;100624.56;103240;1284;61389;-81
2023/07/07 06:05:55;;;;;;;;;;;;;;;28.57;43.88;100621.64;103229;1284;61414;-81
2023/07/07 06:08:21;;;;;;;;;;;;;;;28.57;43.65;100619.86;103383;1282;61533;-81
2023/07/07 06:10:50;;;;;;;;;;;;;;;28.58;43.62;100621.85;103870;1288;60120;-81
2023/07/07 06:13:17;;;;;;;;;;;;;;;28.58;43.52;100618.41;104135;1286;61370;-81
2023/07/07 06:15:43;;;;;;;;;;;;;;;28.59;43.54;100615.84;103949;1284;64835;-81
2023/07/07 06:18:09;;;;;;;;;;;;;;;28.60;43.68;100614.26;103595;1285;61382;-81
2023/07/07 06:20:34;;;;;;;;;;;;;;;28.62;43.65;100617.56;104101;1284;61383;-81
2023/07/07 06:23:00;;;;;;;;;;;;;;;28.63;43.52;100620.33;103724;1287;61281;-81
2023/07/07 06:25:26;;;;;;;;;;;;;;;28.64;43.45;100618.26;103446;1285;61171;-81
2023/07/07 06:27:51;;;;;;;;;;;;;;;28.65;43.49;100621.44;103191;1284;61453;-81
2023/07/07 06:30:17;;;;;;;;;;;;;;;28.65;43.50;100621.19;103189;1286;60043;-81
2023/07/07 06:32:42;;;;;;;;;;;;;;;28.66;43.41;100625.59;103204;1286;61444;-81
2023/07/07 06:35:09;;;;;;;;;;;;;;;28.67;43.53;100630.61;103489;1287;61375;-81
2023/07/07 06:37:34;;;;;;;;;;;;;;;28.68;43.47;100633.43;103525;1287;61808;-81
2023/07/07 06:40:00;;;;;;;;;;;;;;;28.68;43.57;100634.23;103110;1286;62185;-81
2023/07/07 06:42:25;;;;;;;;;;;;;;;28.68;43.34;100629.94;103767;1292;61401;-81
2023/07/07 06:44:51;;;;;;;;;;;;;;;28.69;43.31;100634.77;103510;1286;60035;-81
2023/07/07 06:47:16;;;;;;;;;;;;;;;28.69;43.18;100632.92;103722;1287;60456;-81
2023/07/07 06:49:42;;;;;;;;;;;;;;;28.70;43.14;100635.40;103573;1287;61418;-81
2023/07/07 06:52:07;;;;;;;;;;;;;;;28.70;43.05;100627.76;103075;1288;62187;-81
2023/07/07 06:54:33;;;;;;;;;;;;;;;28.70;43.15;100636.76;103369;1292;60227;-81
2023/07/07 06:56:58;;;;;;;;;;;;;;;28.71;43.32;100634.52;103672;1287;61447;-81
2023/07/07 06:59:24;;;;;;;;;;;;;;;28.71;43.16;100634.45;103476;1287;61387;-81
2023/07/07 07:01:49;;;;;;;;;;;;;;;28.72;43.10;100633.50;103515;1291;61416;-81
2023/07/07 07:04:14;;;;;;;;;;;;;;;28.72;43.03;100634.36;103253;1290;61409;-81
2023/07/07 07:06:43;;;;;;;;;;;;;;;28.73;42.87;100636.60;103134;1288;61411;-81
2023/07/07 07:09:08;;;;;;;;;;;;;;;28.74;42.89;100635.80;102514;1287;612065;-81
2023/07/07 07:11:34;;;;;;;;;;;;;;;28.75;42.80;100633.55;103099;1288;61440;-81
2023/07/07 07:13:59;;;;;;;;;;;;;;;28.75;42.78;100629.34;103268;1287;61271;-81
2023/07/07 07:16:25;;;;;;;;;;;;;;;28.76;42.75;100631.44;102587;1287;64846;-81
2023/07/07 07:18:50;;;;;;;;;;;;;;;28.76;42.78;100631.02;103003;1287;61482;-81
2023/07/07 07:21:16;;;;;;;;;;;;;;;28.77;42.74;100628.63;102735;1288;62502;-81
2023/07/07 07:23:41;;;;;;;;;;;;;;;28.77;42.80;100630.43;103095;1291;62320;-81
2023/07/07 07:26:07;;;;;;;;;;;;;;;28.78;42.58;100631.23;102986;1288;61575;-81
2023/07/07 07:28:33;;;;;;;;;;;;;;;28.78;42.65;100625.79;102939;1287;61575;-81
2023/07/07 07:30:59;;;;;;;;;;;;;;;28.78;42.76;100628.13;103111;1287;61400;-82
2023/07/07 07:33:24;;;;;;;;;;;;;;;28.79;42.66;100630.94;102870;1288;61348;-82
2023/07/07 07:35:50;;;;;;;;;;;;;;;28.80;42.38;100637.55;102998;1287;61845;-82
2023/07/07 07:38:16;;;;;;;;;;;;;;;28.80;42.40;100636.80;103062;1287;61475;-82
2023/07/07 07:40:41;;;;;;;;;;;;;;;28.80;42.33;100632.63;103368;1284;65895;-82
2023/07/07 07:43:06;;;;;;;;;;;;;;;28.81;42.55;100631.30;103562;1284;60193;-82
2023/07/07 07:45:32;;;;;;;;;;;;;;;28.81;42.37;100626.58;103329;1284;61400;-82
2023/07/07 07:47:57;;;;;;;;;;;;;;;28.81;42.34;100625.45;103371;1285;61293;-82
2023/07/07 07:50:23;;;;;;;;;;;;;;;28.82;42.49;100621.38;103635;1285;60108;-82
2023/07/07 07:52:48;;;;;;;;;;;;;;;28.82;42.44;100621.52;103831;1284;61329;-82
2023/07/07 07:55:14;;;;;;;;;;;;;;;28.83;42.44;100622.20;104221;1284;61399;-81
2023/07/07 07:57:40;;;;;;;;;;;;;;;28.83;42.52;100625.60;103821;1284;60212;-81
2023/07/07 08:00:06;;;;;;;;;;;;;;;28.83;42.32;100621.25;104083;1284;60756;-81
2023/07/07 08:02:32;;;;;;;;;;;;;;;28.84;42.40;100625.70;104002;1284;61345;-81
2023/07/07 08:04:57;;;;;;;;;;;;;;;28.84;42.30;100625.51;103625;1284;60793;-81
2023/07/07 08:07:25;;;;;;;;;;;;;;;28.84;42.37;100629.10;103675;1284;61255;-81
2023/07/07 08:09:51;;;;;;;;;;;;;;;28.84;42.44;100629.64;103403;1284;60940;-81
2023/07/07 08:12:16;;;;;;;;;;;;;;;28.85;42.34;100630.12;104036;1284;61379;-81
2023/07/07 08:14:42;;;;;;;;;;;;;;;28.85;42.35;100628.33;103706;1285;59940;-81
2023/07/07 08:17:09;;;;;;;;;;;;;;;28.86;42.11;100628.42;103839;1284;60045;-81
2023/07/07 08:19:36;;;;;;;;;;;;;;;28.85;42.22;100632.60;103569;1284;61411;-81
2023/07/07 08:22:05;;;;;;;;;;;;;;;28.85;42.10;100632.42;103267;1284;72956;-82
2023/07/07 08:24:32;;;;;;;;;;;;;;;28.85;42.19;100631.17;103796;1289;66779;-82
2023/07/07 08:26:57;;;;;;;;;;;;;;;28.85;42.06;100628.28;103265;1287;61267;-82
2023/07/07 08:29:23;;;;;;;;;;;;;;;28.85;42.24;100630.29;103450;1284;60050;-82
2023/07/07 08:31:49;;;;;;;;;;;;;;;28.86;42.05;100633.66;103312;1290;61350;-82
2023/07/07 08:34:15;;;;;;;;;;;;;;;28.85;42.16;100636.19;103492;1284;61375;-82
2023/07/07 08:36:40;;;;;;;;;;;;;;;28.86;42.07;100627.31;103676;1284;61386;-82
2023/07/07 08:39:10;;;;;;;;;;;;;;;28.86;42.23;100636.34;103272;1287;61484;-82
2023/07/07 08:41:35;;;;;;;;;;;;;;;28.86;42.10;100639.39;103251;1285;61398;-82
2023/07/07 08:44:01;;;;;;;;;;;;;;;28.85;41.86;100631.88;103342;1285;61404;-82
2023/07/07 08:46:32;;;;;;;;;;;;;;;28.85;41.94;100634.27;103281;1289;61386;-82
2023/07/07 08:49:03;;;;;;;;;;;;;;;28.85;42.02;100634.13;103859;1284;61361;-82
2023/07/07 08:51:33;;;;;;;;;;;;;;;28.85;41.90;100630.66;103627;1287;61240;-82
2023/07/07 08:53:59;;;;;;;;;;;;;;;28.85;41.92;100629.03;103680;1284;64651;-81
2023/07/07 08:56:28;;;;;;;;;;;;;;;28.85;42.05;100629.17;103731;1288;61454;-81
2023/07/07 08:58:54;;;;;;;;;;;;;;;28.85;41.77;100624.69;103620;1284;61592;-82
2023/07/07 09:01:22;;;;;;;;;;;;;;;28.85;41.82;100625.77;103367;1285;61343;-81
2023/07/07 09:03:53;;;;;;;;;;;;;;;28.85;41.81;100624.98;103236;1284;63907;-81
2023/07/07 09:06:31;;;;;;;;;;;;;;;28.85;41.83;100625.39;103292;1288;65892;-81
2023/07/07 09:09:00;;;;;;;;;;;;;;;28.85;41.71;100625.39;103676;1284;60021;-81
2023/07/07 09:11:38;;;;;;;;;;;;;;;28.86;41.78;100627.34;103696;1283;60086;-81
2023/07/07 09:14:03;;;;;;;;;;;;;;;28.85;41.71;100625.20;103409;1285;64592;-81
2023/07/07 09:16:32;;;;;;;;;;;;;;;28.85;41.59;100621.59;103238;1284;61505;-81
2023/07/07 09:19:03;;;;;;;;;;;;;;;28.85;41.68;100619.42;103830;1284;61360;-81
2023/07/07 09:21:38;;;;;;;;;;;;;;;28.85;41.67;100620.34;103616;1284;61163;-81
2023/07/07 09:24:24;;;;;;;;;;;;;;;28.85;41.70;100620.47;103458;1283;64544;-81
2023/07/07 09:26:50;;;;;;;;;;;;;;;28.85;41.72;100620.50;103745;1284;65760;-81
2023/07/07 09:29:18;;;;;;;;;;;;;;;28.85;41.77;100617.96;103427;1286;61453;-81
2023/07/07 09:31:44;;;;;;;;;;;;;;;28.85;41.63;100613.08;104453;1282;62160;-81
2023/07/07 09:34:10;;;;;;;;;;;;;;;28.86;41.73;100615.01;104053;1287;61303;-81
2023/07/07 09:36:45;;;;;;;;;;;;;;;28.86;41.57;100611.89;103351;1285;61186;-81
2023/07/07 09:39:22;;;;;;;;;;;;;;;28.86;41.62;100606.80;103225;1284;59950;-81
2023/07/07 09:41:48;;;;;;;;;;;;;;;28.87;41.67;100604.23;104087;1285;61398;-81
2023/07/07 09:44:32;;;;;;;;;;;;;;;28.86;41.63;100601.70;103609;1286;60381;-81
2023/07/07 09:46:57;;;;;;;;;;;;;;;28.86;41.64;100597.96;104002;1284;65716;-81
2023/07/07 09:49:27;;;;;;;;;;;;;;;28.86;41.51;100600.61;104032;1287;60166;-81
2023/07/07 09:52:11;;;;;;;;;;;;;;;28.87;41.60;100594.81;103265;1284;59936;-81
2023/07/07 09:54:36;;;;;;;;;;;;;;;28.87;41.62;100593.11;103344;1287;63905;-81
2023/07/07 09:57:03;;;;;;;;;;;;;;;28.87;41.59;100592.36;103802;1285;62314;-81
2023/07/07 09:59:30;;;;;;;;;;;;;;;28.88;41.60;100592.53;103998;1287;61460;-81
2023/07/07 10:01:56;;;;;;;;;;;;;;;28.88;41.68;100588.15;103505;1289;59978;-81
2023/07/07 10:04:21;;;;;;;;;;;;;;;28.88;41.54;100589.02;104173;1285;61658;-81
2023/07/07 10:07:04;;;;;;;;;;;;;;;28.88;41.66;100586.48;103888;1285;61399;-81
2023/07/07 10:09:31;;;;;;;;;;;;;;;28.88;41.68;100585.57;103548;1284;60171;-81
2023/07/07 10:11:57;;;;;;;;;;;;;;;28.88;41.77;100584.46;103814;1284;61340;-81
2023/07/07 10:14:22;;;;;;;;;;;;;;;28.89;41.78;100586.98;103512;1284;60016;-81
2023/07/07 10:16:48;;;;;;;;;;;;;;;28.89;41.68;100587.48;103513;1287;62444;-81
2023/07/07 10:19:16;;;;;;;;;;;;;;;28.89;41.62;100584.34;104020;1289;61258;-81
2023/07/07 10:21:42;;;;;;;;;;;;;;;28.89;41.59;100580.04;104074;1286;61086;-81
2023/07/07 10:24:11;;;;;;;;;;;;;;;28.89;41.78;100578.04;103838;1287;61380;-81
2023/07/07 10:26:45;;;;;;;;;;;;;;;28.89;41.58;100574.56;103595;1287;66958;-81
2023/07/07 10:29:22;;;;;;;;;;;;;;;28.89;41.53;100569.30;103384;1289;59948;-81
2023/07/07 10:31:47;;;;;;;;;;;;;;;28.90;41.67;100564.96;103897;1284;62147;-81
2023/07/07 10:34:32;;;;;;;;;;;;;;;28.90;41.63;100562.58;103785;1284;61429;-81
2023/07/07 10:36:58;;;;;;;;;;;;;;;28.90;41.70;100554.97;104310;1284;64874;-81
2023/07/07 10:39:25;;;;;;;;;;;;;;;28.89;41.72;100548.27;103898;1284;61374;-81
2023/07/07 10:41:51;;;;;;;;;;;;;;;28.90;41.73;100541.66;103539;1284;59897;-81
2023/07/07 10:44:17;;;;;;;;;;;;;;;28.91;41.70;100537.29;103908;1285;61402;-81
2023/07/07 10:46:42;;;;;;;;;;;;;;;28.91;41.68;100536.91;103399;1284;61456;-81
2023/07/07 10:49:09;;;;;;;;;;;;;;;28.91;41.58;100537.63;104278;1284;60879;-81
2023/07/07 10:51:38;;;;;;;;;;;;;;;28.91;41.59;100535.27;103991;1285;62228;-81
2023/07/07 10:54:07;;;;;;;;;;;;;;;28.91;41.71;100532.56;103644;1284;64835;-81
2023/07/07 10:56:41;;;;;;;;;;;;;;;28.91;41.62;100532.20;103519;1288;66056;-81
2023/07/07 10:59:22;;;;;;;;;;;;;;;28.91;41.55;100528.56;103111;1284;61271;-81
2023/07/07 11:02:02;;;;;;;;;;;;;;;28.91;41.49;100524.38;104033;1284;61153;-81
2023/07/07 11:04:32;;;;;;;;;;;;;;;28.91;41.63;100520.04;103880;1284;64000;-81
2023/07/07 11:07:16;;;;;;;;;;;;;;;28.91;41.42;100514.27;103768;1287;66892;-81
2023/07/07 11:09:42;;;;;;;;;;;;;;;28.91;41.43;100512.66;103339;1286;60042;-81
2023/07/07 11:12:10;;;;;;;;;;;;;;;28.91;41.49;100509.04;103504;1286;62301;-81
2023/07/07 11:14:39;;;;;;;;;;;;;;;28.91;41.28;100508.65;103540;1285;64755;-81
2023/07/07 11:17:23;;;;;;;;;;;;;;;28.91;41.52;100514.06;103286;1284;65765;-81
2023/07/07 11:19:54;;;;;;;;;;;;;;;28.91;41.32;100514.30;103912;1284;61537;-81
2023/07/07 11:22:29;;;;;;;;;;;;;;;28.91;41.44;100510.32;103876;1288;62102;-81
2023/07/07 11:25:21;;;;;;;;;;;;;;;28.91;41.34;100503.77;104050;1284;63880;-81
2023/07/07 11:27:54;;;;;;;;;;;;;;;28.92;41.32;100501.31;103618;1284;65773;-81
2023/07/07 11:30:38;;;;;;;;;;;;;;;28.92;41.29;100496.80;103916;1284;59328;-81
2023/07/07 11:33:16;;;;;;;;;;;;;;;28.92;41.42;100488.96;104121;1284;61272;-81
2023/07/07 11:35:42;;;;;;;;;;;;;;;28.93;41.52;100490.13;103637;1284;63685;-81
2023/07/07 11:38:11;;;;;;;;;;;;;;;28.94;41.42;100483.36;103966;1284;62120;-81
2023/07/07 11:40:56;;;;;;;;;;;;;;;28.94;41.16;100478.84;103930;1284;61265;-81
2023/07/07 11:43:42;;;;;;;;;;;;;;;28.94;41.34;100473.17;103698;1289;61298;-81
2023/07/07 11:46:14;;;;;;;;;;;;;;;28.95;41.32;100471.32;103876;1284;64691;-81
2023/07/07 11:48:46;;;;;;;;;;;;;;;28.95;41.26;100467.16;104219;1284;66773;-81
2023/07/07 11:51:21;;;;;;;;;;;;;;;28.95;41.28;100464.98;103590;1289;61374;-81
2023/07/07 11:54:06;;;;;;;;;;;;;;;28.95;41.44;100461.00;103247;1285;61432;-81
2023/07/07 11:56:43;;;;;;;;;;;;;;;28.95;41.33;100448.23;103269;1285;63952;-81
2023/07/07 11:59:13;;;;;;;;;;;;;;;28.95;41.14;100445.55;103278;1284;66980;-81
2023/07/07 12:01:40;;;;;;;;;;;;;;;28.95;41.27;100440.29;103228;1284;61294;-81
2023/07/07 12:04:17;;;;;;;;;;;;;;;28.95;41.33;100440.09;103123;1284;62255;-81
2023/07/07 12:06:53;;;;;;;;;;;;;;;28.95;41.39;100439.73;103115;1284;73475;-81
2023/07/07 12:09:19;;;;;;;;;;;;;;;28.95;41.44;100438.66;103081;1285;67047;-81
2023/07/07 12:12:08;;;;;;;;;;;;;;;28.95;41.41;100440.09;103181;1284;61150;-81
2023/07/07 12:14:35;;;;;;;;;;;;;;;28.95;41.34;100436.48;103006;1285;61322;-81
2023/07/07 12:17:01;;;;;;;;;;;;;;;28.95;41.30;100434.32;103076;1285;64847;-81
2023/07/07 12:19:31;;;;;;;;;;;;;;;28.95;41.33;100437.23;103126;1284;62320;-81
2023/07/07 12:21:56;;;;;;;;;;;;;;;28.95;41.35;100439.75;102860;1284;62153;-81
2023/07/07 12:24:24;;;;;;;;;;;;;;;28.95;41.35;100432.55;103087;1289;60117;-81
2023/07/07 12:27:09;;;;;;;;;;;;;;;28.95;41.45;100432.34;103059;1285;64831;-81
2023/07/07 12:29:45;;;;;;;;;;;;;;;28.95;41.51;100430.57;103113;1284;66916;-81